Kalevala, Russia
Current Conditions -  °F | °C
As of 12:20 PM on Thursday 27 Nov 2014 (Local Time) from EFKS Reporting Station
Moderate Fog Moderate Fog  
Wind Chill: 21°   Ceiling: 300
Heat Index: 21°   Visibility: 0.12mi
Dew Point: 21°   Wind: 1mph
Humidity: 100%   Direction: 350°N
Pressure: 30.18"   Gusts: NA
Location:  65.2°N, 31.17°E
Report Text: EFKS 270920Z AUTO 35001KT 0200 FZFG VV003 M06/M06 Q1022
Loading
Personal Weather Stations






























Interactive Weather Map New forecast layout! Learn more

10-Day Weather Forecast

Advertisements
Track Severe Weather on mobile